Pagina principale
METAR-TAF:

METAR-TAF

Aeroporti :

Hévíz, Ungheria

Aeroporto di Sármellék

latitudine: 46-41-11N, longitudine: 017-09-33E, altezza: 124 m

Osservazione

Il bollettino è stato emesso 9 ore e 21 minuti fa, alle 15:45 UTC
Vento 5 kt da sud-est
Temperature 5°C
Umidità 81%
Pressione 1001 hPa
Visibilità 10 km o più
nessuna nube inferiore a 1500 m e nessun cumulonembo

METAR: LHSM 161545Z 14005KT CAVOK 05/02 Q1001 NOSIG

Ora: 02:06 (01:06 UTC)

Previsione

Il bollettino è stato emesso 13 ore e 51 minuti fa, alle 11:15 UTC
Previsione valida dal 16 alle 12 UTC al 16 alle 21 UTC
Vento 8 kt da sud/sud-est
Visibilità 10 km o più
nessuna nube inferiore a 1500 m e nessun cumulonembo

TAF: LHSM 161115Z 1612/1621 16008KT CAVOK

Osservazioni e previsioni meteorologiche di più di 4000 aeroporti (messaggi METAR e TAF).

Le stazioni disponibili sono rappresentate dai dischi gialli e rossi sulla carta.

Puntare il mouse per vedere il nome della stazione.

Clicca sopra per visualizzare le osservazioni e previsioni meteorologiche.

Per cambiare la mappa : fare clic sui pulsanti verdi con una croce nera per ingrandire, il pulsante verde con un trattino per diminuire, o sulla freccia verde per le mappe adiacenti.


METAR-TAF: